Time;durP1;ratioP1;P1;durP2;ratioP2;P2;SDS_P1;SDS_P2;PMS_P1;PMS_P2;Temp;Humidity;BMP_temperature;BMP_pressure;BME280_temperature;BME280_humidity;BME280_pressure;Samples;Min_cycle;Max_cycle;Signal;HPM_P1;HPM_P2
2021/08/17 00:02:05;;;;;;;9.55;4.65;;;;;;;15.52;91.40;97973.66;5030447;28;20123;-63
2021/08/17 00:04:30;;;;;;;11.23;4.97;;;;;;;14.56;93.71;97967.94;5028482;28;20660;-66
2021/08/17 00:06:56;;;;;;;8.10;4.53;;;;;;;14.67;93.39;97973.44;5031137;28;20515;-64
2021/08/17 00:09:21;;;;;;;9.25;4.50;;;;;;;14.80;93.22;97974.41;5029709;28;20029;-63
2021/08/17 00:11:47;;;;;;;8.15;4.45;;;;;;;14.86;91.96;97975.00;5030086;28;20047;-65
2021/08/17 00:14:12;;;;;;;8.55;4.13;;;;;;;14.77;92.13;97977.22;5029107;28;20033;-65
2021/08/17 00:16:37;;;;;;;10.90;4.75;;;;;;;14.36;93.97;97971.72;5030718;28;20511;-63
2021/08/17 00:19:03;;;;;;;8.88;4.22;;;;;;;15.22;89.72;97971.97;5028233;28;20029;-64
2021/08/17 00:21:28;;;;;;;9.35;4.07;;;;;;;14.69;92.81;97978.63;5028514;28;20040;-66
2021/08/17 00:23:56;;;;;;;8.82;4.50;;;;;;;14.72;91.84;97974.03;5030178;28;20032;-63
2021/08/17 00:26:21;;;;;;;9.60;4.30;;;;;;;14.71;91.63;97974.97;5026617;28;20037;-66
2021/08/17 00:28:47;;;;;;;7.80;4.00;;;;;;;14.45;92.14;97972.03;5029893;28;20028;-65
2021/08/17 00:31:12;;;;;;;7.40;3.83;;;;;;;14.68;88.35;97976.91;5027358;28;20045;-64
2021/08/17 00:33:40;;;;;;;8.75;4.32;;;;;;;14.42;92.18;97981.84;5029644;28;20352;-65
2021/08/17 00:36:08;;;;;;;9.38;4.30;;;;;;;14.35;91.41;97981.34;5031626;28;20029;-64
2021/08/17 00:38:36;;;;;;;8.18;3.85;;;;;;;14.87;90.92;97988.03;5030803;28;20033;-63
2021/08/17 00:41:01;;;;;;;8.00;4.45;;;;;;;14.54;89.86;97975.03;5029213;28;20582;-66
2021/08/17 00:43:27;;;;;;;9.05;4.13;;;;;;;14.36;91.56;97976.97;5027304;28;20810;-65
2021/08/17 00:45:52;;;;;;;10.35;4.40;;;;;;;14.25;91.85;97981.03;5028598;28;20036;-65
2021/08/17 00:48:20;;;;;;;10.18;4.28;;;;;;;14.59;90.12;97988.78;5029213;28;20152;-64
2021/08/17 00:50:46;;;;;;;8.82;3.90;;;;;;;14.53;90.96;97989.13;5028384;28;20048;-65
2021/08/17 00:53:12;;;;;;;10.48;3.85;;;;;;;15.20;86.75;97982.56;5029030;28;20141;-64
2021/08/17 00:55:39;;;;;;;5.93;3.45;;;;;;;15.14;86.17;97987.31;5027298;28;20038;-64
2021/08/17 00:58:04;;;;;;;8.45;3.90;;;;;;;14.78;86.64;97993.84;5026253;28;20028;-65
2021/08/17 01:00:29;;;;;;;10.65;4.35;;;;;;;13.60;91.00;98002.06;5025840;28;20033;-65
2021/08/17 01:02:55;;;;;;;6.90;3.60;;;;;;;14.50;90.73;97999.78;5026885;28;20031;-65
2021/08/17 01:05:27;;;;;;;7.25;3.67;;;;;;;14.04;88.76;97988.31;5027029;28;20075;-64
2021/08/17 01:07:53;;;;;;;9.02;3.90;;;;;;;14.44;87.45;97980.81;5026760;28;20108;-64
2021/08/17 01:10:19;;;;;;;7.70;3.95;;;;;;;14.24;89.90;97986.34;5026047;28;20029;-64
2021/08/17 01:12:44;;;;;;;11.95;3.78;;;;;;;14.46;88.00;97981.59;5025747;28;20029;-64
2021/08/17 01:15:12;;;;;;;10.10;4.10;;;;;;;13.93;89.45;97974.97;5026200;28;20388;-64
2021/08/17 01:17:37;;;;;;;5.95;3.30;;;;;;;14.69;88.84;97987.31;5026674;28;20487;-66
2021/08/17 01:20:03;;;;;;;8.90;4.20;;;;;;;14.00;91.87;97989.41;5025785;28;20025;-64
2021/08/17 01:22:29;;;;;;;8.27;4.20;;;;;;;14.02;91.17;97984.94;5026373;28;20544;-66
2021/08/17 01:24:55;;;;;;;14.50;4.40;;;;;;;13.72;92.29;97984.81;5027427;28;20029;-66
2021/08/17 01:27:20;;;;;;;7.18;3.78;;;;;;;14.17;92.73;97995.50;5024970;28;20289;-66
2021/08/17 01:29:46;;;;;;;7.85;3.67;;;;;;;13.70;93.50;97999.78;5029656;28;20712;-66
2021/08/17 01:32:14;;;;;;;8.15;4.15;;;;;;;14.27;90.45;98001.94;5025899;28;20132;-64
2021/08/17 01:34:39;;;;;;;5.45;3.30;;;;;;;14.42;89.96;98005.47;5026588;28;20398;-65
2021/08/17 01:37:05;;;;;;;7.70;3.58;;;;;;;13.50;92.01;98013.94;5026195;28;20713;-64
2021/08/17 01:39:30;;;;;;;8.98;3.88;;;;;;;13.77;91.57;98016.88;5027301;28;20032;-63
2021/08/17 01:41:56;;;;;;;9.40;4.00;;;;;;;13.50;90.84;98022.66;5025285;28;20029;-64
2021/08/17 01:44:21;;;;;;;10.98;3.53;;;;;;;13.57;89.70;98028.44;5026399;28;20055;-63
2021/08/17 01:46:47;;;;;;;6.90;3.88;;;;;;;13.35;93.11;98035.72;5025754;28;20045;-64
2021/08/17 01:49:14;;;;;;;7.82;3.90;;;;;;;13.80;91.43;98037.72;5026409;28;20030;-65
2021/08/17 01:51:39;;;;;;;8.73;4.10;;;;;;;13.42;92.57;98052.81;5025596;28;20579;-64
2021/08/17 01:54:05;;;;;;;7.60;3.97;;;;;;;13.79;91.00;98045.66;5027382;28;20803;-64
2021/08/17 01:56:31;;;;;;;7.05;3.63;;;;;;;13.66;90.85;98042.84;5025148;28;20102;-63
2021/08/17 01:58:57;;;;;;;7.90;3.80;;;;;;;13.62;90.71;98043.91;5028589;28;20029;-65
2021/08/17 02:01:22;;;;;;;6.65;3.88;;;;;;;13.06;93.79;98051.09;5026689;28;20060;-65
2021/08/17 02:03:47;;;;;;;7.95;3.60;;;;;;;13.63;90.05;98051.69;5026614;28;20651;-63
2021/08/17 02:06:14;;;;;;;9.90;3.80;;;;;;;13.30;92.19;98055.13;5024827;28;20056;-64
2021/08/17 02:08:39;;;;;;;8.32;3.45;;;;;;;13.73;90.28;98059.06;5027049;28;20037;-66
2021/08/17 02:11:05;;;;;;;8.23;4.05;;;;;;;13.25;90.61;98056.25;5024411;28;20056;-65
2021/08/17 02:13:30;;;;;;;8.85;3.80;;;;;;;13.18;92.29;98060.97;5025188;28;20034;-65
2021/08/17 02:15:57;;;;;;;9.85;4.20;;;;;;;13.73;87.42;98061.69;5027313;28;20041;-66
2021/08/17 02:18:23;;;;;;;8.45;4.10;;;;;;;13.21;90.94;98066.03;5025020;28;20786;-67
2021/08/17 02:20:48;;;;;;;7.07;3.65;;;;;;;13.48;91.76;98063.81;5029064;28;20053;-64
2021/08/17 02:23:14;;;;;;;8.73;3.63;;;;;;;13.05;92.99;98067.72;5024555;28;20025;-64
2021/08/17 02:25:39;;;;;;;8.30;4.28;;;;;;;12.91;91.33;98079.75;5026825;28;20044;-64
2021/08/17 02:28:05;;;;;;;12.57;4.95;;;;;;;12.91;93.29;98084.13;5023293;28;20245;-63
2021/08/17 02:30:30;;;;;;;5.80;3.38;;;;;;;13.53;90.83;98075.81;5025428;28;20044;-63
2021/08/17 02:32:56;;;;;;;10.85;4.32;;;;;;;12.81;92.76;98078.53;5027628;28;20032;-65
2021/08/17 02:35:22;;;;;;;7.38;4.05;;;;;;;13.01;91.78;98071.44;5025500;28;20025;-63
2021/08/17 02:37:47;;;;;;;10.02;4.60;;;;;;;12.91;91.53;98073.66;5025870;28;20028;-66
2021/08/17 02:40:13;;;;;;;6.97;3.63;;;;;;;13.19;90.36;98080.97;5027109;28;20033;-65
2021/08/17 02:42:39;;;;;;;9.43;4.07;;;;;;;12.49;94.71;98074.81;5025162;28;20030;-63
2021/08/17 02:45:05;;;;;;;8.95;3.60;;;;;;;12.94;93.09;98078.75;5026933;28;20039;-63
2021/08/17 02:47:31;;;;;;;9.32;4.05;;;;;;;13.00;92.82;98077.59;5024813;28;20254;-63
2021/08/17 02:49:56;;;;;;;10.68;4.20;;;;;;;12.77;92.52;98076.09;5026863;28;20025;-66
2021/08/17 02:52:22;;;;;;;6.50;3.83;;;;;;;12.99;90.83;98068.88;5024864;28;20045;-64
2021/08/17 02:54:50;;;;;;;7.68;3.63;;;;;;;13.35;90.49;98072.41;5025487;28;20060;-64
2021/08/17 02:57:16;;;;;;;8.13;4.40;;;;;;;12.62;92.83;98072.47;5027755;28;20040;-64
2021/08/17 02:59:41;;;;;;;8.45;3.92;;;;;;;13.17;90.33;98077.59;5025745;28;20029;-63
2021/08/17 03:02:06;;;;;;;8.45;4.85;;;;;;;12.71;92.47;98078.09;5023799;28;20041;-63
2021/08/17 03:04:32;;;;;;;7.80;4.15;;;;;;;12.53;94.45;98073.75;5024540;28;20111;-63
2021/08/17 03:06:58;;;;;;;9.13;4.70;;;;;;;12.56;92.06;98073.63;5023489;28;20115;-65
2021/08/17 03:09:23;;;;;;;12.48;5.15;;;;;;;12.69;91.83;98074.72;5023583;28;20037;-63
2021/08/17 03:11:49;;;;;;;6.00;3.67;;;;;;;12.95;92.41;98079.59;5023467;28;20041;-64
2021/08/17 03:14:15;;;;;;;8.35;4.00;;;;;;;12.94;90.92;98084.00;5025397;28;20051;-66
2021/08/17 03:16:40;;;;;;;11.43;4.38;;;;;;;12.74;92.20;98082.34;5024389;28;20040;-64
2021/08/17 03:19:07;;;;;;;8.23;3.78;;;;;;;13.24;91.76;98086.84;5024644;28;20024;-63
2021/08/17 03:21:33;;;;;;;9.45;3.47;;;;;;;13.64;88.96;98082.22;5024931;28;20048;-65
2021/08/17 03:23:59;;;;;;;8.40;4.28;;;;;;;12.72;91.63;98086.81;5026450;28;20021;-64
2021/08/17 03:26:24;;;;;;;7.72;4.13;;;;;;;13.03;90.74;98082.69;5023807;28;20047;-66
2021/08/17 03:28:49;;;;;;;9.18;4.70;;;;;;;13.06;90.55;98087.75;5027293;28;20028;-64
2021/08/17 03:31:15;;;;;;;8.93;4.57;;;;;;;12.77;91.03;98082.19;5025642;28;20297;-64
2021/08/17 03:33:40;;;;;;;8.52;3.97;;;;;;;13.16;90.56;98091.63;5027866;28;20033;-64
2021/08/17 03:36:06;;;;;;;9.23;4.60;;;;;;;12.64;90.49;98092.38;5024591;28;20118;-63
2021/08/17 03:38:32;;;;;;;6.43;3.97;;;;;;;12.56;92.66;98101.56;5025337;28;20021;-65
2021/08/17 03:40:58;;;;;;;9.50;3.90;;;;;;;12.79;92.74;98103.06;5025622;28;20041;-64
2021/08/17 03:43:25;;;;;;;7.72;3.80;;;;;;;12.97;92.13;98111.78;5025765;28;20022;-65
2021/08/17 03:45:51;;;;;;;7.35;4.15;;;;;;;12.98;90.77;98108.25;5024708;28;20045;-65
2021/08/17 03:48:16;;;;;;;7.70;4.10;;;;;;;12.76;91.95;98111.91;5024006;28;20021;-63
2021/08/17 03:50:42;;;;;;;6.65;4.03;;;;;;;13.15;90.88;98117.91;5024752;28;20044;-65
2021/08/17 03:53:07;;;;;;;7.68;4.35;;;;;;;12.89;89.91;98113.00;5023049;28;20041;-64
2021/08/17 03:55:33;;;;;;;5.93;2.90;;;;;;;13.39;90.55;98110.59;5023646;28;20033;-63
2021/08/17 03:57:58;;;;;;;10.25;4.35;;;;;;;13.46;88.47;98117.25;5025578;28;20031;-64
2021/08/17 04:00:25;;;;;;;9.70;4.18;;;;;;;12.73;92.65;98122.53;5027045;28;20094;-63
2021/08/17 04:02:52;;;;;;;8.45;4.32;;;;;;;13.26;88.87;98126.06;5029252;28;20029;-63
2021/08/17 04:05:18;;;;;;;8.25;4.40;;;;;;;13.34;89.38;98117.84;5028476;28;20032;-63
2021/08/17 04:07:43;;;;;;;10.02;4.20;;;;;;;13.45;88.41;98126.00;5025425;28;20028;-65
2021/08/17 04:10:09;;;;;;;9.73;4.03;;;;;;;13.30;86.97;98123.22;5027920;28;20032;-63
2021/08/17 04:12:34;;;;;;;7.05;3.50;;;;;;;13.37;88.30;98122.94;5029767;28;20049;-64
2021/08/17 04:15:00;;;;;;;9.60;4.32;;;;;;;13.27;88.79;98123.38;5028368;28;20021;-65
2021/08/17 04:17:25;;;;;;;7.03;3.35;;;;;;;13.80;87.35;98128.59;5026026;28;20041;-63
2021/08/17 04:19:50;;;;;;;12.30;4.00;;;;;;;13.37;87.82;98125.56;5028827;28;20389;-63
2021/08/17 04:22:15;;;;;;;8.43;3.90;;;;;;;13.41;87.69;98129.72;5026116;28;20029;-65
2021/08/17 04:24:41;;;;;;;9.57;4.20;;;;;;;13.25;87.39;98134.84;5027666;28;20091;-63
2021/08/17 04:27:08;;;;;;;7.90;4.05;;;;;;;13.18;88.94;98142.16;5026823;28;20540;-65
2021/08/17 04:29:36;;;;;;;7.68;3.78;;;;;;;13.53;85.88;98150.06;5026926;28;20033;-64
2021/08/17 04:32:02;;;;;;;9.73;4.13;;;;;;;13.32;87.83;98145.91;5027434;28;20498;-67
2021/08/17 04:34:27;;;;;;;6.57;3.60;;;;;;;13.58;86.99;98147.19;5032815;28;20541;-64
2021/08/17 04:36:53;;;;;;;6.40;3.40;;;;;;;13.15;88.20;98149.31;5029902;28;20682;-64
2021/08/17 04:39:18;;;;;;;12.52;4.00;;;;;;;13.50;84.02;98155.47;5026130;28;20037;-64
2021/08/17 04:41:43;;;;;;;9.35;4.13;;;;;;;12.90;89.03;98155.72;5028550;28;20079;-66
2021/08/17 04:44:09;;;;;;;11.25;4.28;;;;;;;13.50;85.62;98152.84;5027516;28;20029;-66
2021/08/17 04:46:34;;;;;;;8.02;3.67;;;;;;;13.30;86.06;98159.91;5026850;28;20103;-64
2021/08/17 04:49:00;;;;;;;9.13;3.47;;;;;;;13.51;86.94;98167.66;5027992;28;20037;-64
2021/08/17 04:51:27;;;;;;;7.65;4.10;;;;;;;12.97;87.23;98159.75;5026745;28;20110;-65
2021/08/17 04:53:52;;;;;;;10.10;3.90;;;;;;;13.72;84.30;98164.84;5029234;28;20032;-64
2021/08/17 04:56:18;;;;;;;6.90;3.67;;;;;;;13.27;84.74;98175.75;5027208;28;20041;-66
2021/08/17 04:58:43;;;;;;;6.10;3.47;;;;;;;13.51;84.91;98162.41;5026689;28;20025;-66
2021/08/17 05:01:08;;;;;;;6.65;3.58;;;;;;;13.26;86.46;98170.59;5026151;28;20041;-66
2021/08/17 05:03:34;;;;;;;8.82;3.70;;;;;;;13.02;86.99;98170.84;5023994;28;20090;-64
2021/08/17 05:05:59;;;;;;;12.13;3.90;;;;;;;13.13;85.06;98180.81;5031180;28;20037;-65
2021/08/17 05:08:25;;;;;;;9.70;3.55;;;;;;;13.13;86.75;98183.44;5030833;28;20018;-64
2021/08/17 05:10:50;;;;;;;7.88;3.53;;;;;;;13.34;86.62;98185.97;5031046;28;20340;-66
2021/08/17 05:13:16;;;;;;;7.32;3.42;;;;;;;13.43;85.99;98193.38;5027611;28;20088;-65
2021/08/17 05:15:41;;;;;;;8.43;3.67;;;;;;;13.21;84.84;98194.38;5027652;28;20041;-64
2021/08/17 05:18:07;;;;;;;7.22;3.60;;;;;;;13.36;82.91;98197.22;5027045;28;20029;-66
2021/08/17 05:20:32;;;;;;;11.88;3.80;;;;;;;12.91;84.63;98194.94;5029163;28;20041;-66
2021/08/17 05:22:58;;;;;;;7.55;3.42;;;;;;;13.55;85.28;98189.31;5027636;28;20025;-67
2021/08/17 05:25:24;;;;;;;8.27;3.60;;;;;;;13.13;86.54;98193.06;5029256;28;20029;-65
2021/08/17 05:27:50;;;;;;;5.75;3.03;;;;;;;13.44;85.27;98202.94;5029616;28;20029;-66
2021/08/17 05:30:16;;;;;;;7.75;3.20;;;;;;;13.54;84.69;98204.16;5029044;28;20029;-67
2021/08/17 05:32:42;;;;;;;8.65;3.22;;;;;;;13.41;83.92;98198.69;5028352;28;20553;-67
2021/08/17 05:35:08;;;;;;;10.27;3.72;;;;;;;13.45;84.51;98210.72;5028876;28;20033;-65
2021/08/17 05:37:33;;;;;;;8.82;4.10;;;;;;;13.34;85.34;98207.75;5027854;28;20025;-67
2021/08/17 05:39:59;;;;;;;10.45;4.07;;;;;;;13.06;86.29;98209.06;5029633;28;20025;-65
2021/08/17 05:42:25;;;;;;;10.23;3.80;;;;;;;13.64;83.35;98215.88;5030667;28;20038;-65
2021/08/17 05:44:50;;;;;;;9.55;3.58;;;;;;;13.27;84.63;98217.69;5025509;28;20025;-65
2021/08/17 05:47:16;;;;;;;11.18;3.75;;;;;;;13.16;84.65;98221.72;5028330;28;20034;-66
2021/08/17 05:49:42;;;;;;;14.60;4.28;;;;;;;13.78;83.78;98209.94;5027669;28;20060;-68
2021/08/17 05:52:10;;;;;;;6.45;3.47;;;;;;;13.22;84.77;98214.44;5028117;28;20049;-64
2021/08/17 05:54:38;;;;;;;7.60;3.30;;;;;;;13.61;84.08;98221.28;5028419;28;20519;-64
2021/08/17 05:57:04;;;;;;;7.07;3.30;;;;;;;13.63;82.85;98224.66;5028161;28;20173;-66
2021/08/17 05:59:30;;;;;;;8.57;3.42;;;;;;;13.46;82.56;98222.88;5030540;28;20041;-66
2021/08/17 06:01:58;;;;;;;8.27;3.13;;;;;;;13.80;82.77;98229.09;5028012;28;20608;-64
2021/08/17 06:04:24;;;;;;;6.57;3.30;;;;;;;13.66;82.74;98229.75;5024672;28;20108;-65
2021/08/17 06:06:49;;;;;;;11.75;3.40;;;;;;;13.74;83.93;98223.28;5028045;28;20037;-65
2021/08/17 06:09:15;;;;;;;9.10;3.30;;;;;;;13.83;83.53;98225.44;5029239;28;20024;-67
2021/08/17 06:11:43;;;;;;;11.40;3.67;;;;;;;13.56;81.92;98225.88;5028499;28;20033;-67
2021/08/17 06:14:09;;;;;;;8.95;3.30;;;;;;;13.82;82.65;98235.09;5027590;28;20029;-67
2021/08/17 06:16:35;;;;;;;8.13;3.55;;;;;;;13.75;84.07;98233.72;5027984;28;20033;-67
2021/08/17 06:19:00;;;;;;;7.40;3.25;;;;;;;13.72;82.39;98239.09;5028946;28;20034;-66
2021/08/17 06:21:26;;;;;;;9.27;3.17;;;;;;;13.84;82.44;98242.84;5028513;28;20280;-65
2021/08/17 06:23:52;;;;;;;8.05;3.03;;;;;;;14.20;81.70;98239.28;5027839;28;20061;-64
2021/08/17 06:26:18;;;;;;;9.27;3.63;;;;;;;14.16;81.75;98237.75;5028857;28;20064;-63
2021/08/17 06:28:45;;;;;;;7.55;3.30;;;;;;;13.55;82.90;98237.31;5025716;28;20036;-64
2021/08/17 06:31:13;;;;;;;8.65;3.45;;;;;;;14.08;82.46;98230.31;5028645;28;20075;-65
2021/08/17 06:33:38;;;;;;;8.55;3.00;;;;;;;14.69;80.71;98241.16;5028290;28;20403;-66
2021/08/17 06:36:06;;;;;;;6.82;3.13;;;;;;;14.44;79.01;98239.78;5028335;28;20037;-64
2021/08/17 06:38:31;;;;;;;9.05;3.40;;;;;;;14.42;79.30;98245.09;5027578;28;20051;-64
2021/08/17 06:40:57;;;;;;;10.02;3.35;;;;;;;14.83;78.74;98252.59;5028484;28;20032;-65
2021/08/17 06:43:23;;;;;;;8.20;2.90;;;;;;;14.63;77.84;98247.53;5028422;28;20112;-65
2021/08/17 06:45:49;;;;;;;9.57;3.50;;;;;;;14.80;77.20;98260.63;5027408;28;20033;-65
2021/08/17 06:48:14;;;;;;;9.50;3.35;;;;;;;14.84;77.64;98250.81;5027610;28;20032;-64
2021/08/17 06:50:40;;;;;;;9.77;3.00;;;;;;;14.70;79.29;98254.16;5025907;28;20060;-65
2021/08/17 06:53:05;;;;;;;11.00;2.88;;;;;;;14.54;79.05;98253.25;5028364;28;20039;-64
2021/08/17 06:55:31;;;;;;;11.52;3.55;;;;;;;14.97;78.64;98251.81;5027133;28;20068;-66
2021/08/17 06:57:56;;;;;;;6.97;2.65;;;;;;;16.05;74.24;98256.25;5027758;28;20032;-63
2021/08/17 07:00:22;;;;;;;6.93;3.50;;;;;;;15.61;74.96;98259.66;5029211;28;20040;-67
2021/08/17 07:02:47;;;;;;;6.57;3.22;;;;;;;15.51;75.46;98246.22;5025685;28;20021;-64
2021/08/17 07:05:12;;;;;;;7.78;3.20;;;;;;;15.54;75.81;98251.28;5025036;28;20041;-64
2021/08/17 07:07:38;;;;;;;8.43;3.15;;;;;;;15.60;74.80;98245.69;5027970;28;20022;-64
2021/08/17 07:10:04;;;;;;;5.57;2.75;;;;;;;15.99;74.76;98244.31;5025018;28;20029;-66
2021/08/17 07:12:29;;;;;;;9.63;3.40;;;;;;;16.10;74.34;98240.19;5028028;28;20033;-66
2021/08/17 07:14:54;;;;;;;9.00;3.00;;;;;;;16.13;72.83;98242.66;5027535;28;20102;-64
2021/08/17 07:17:20;;;;;;;7.18;3.08;;;;;;;16.41;73.56;98246.25;5024888;28;20415;-65
2021/08/17 07:19:45;;;;;;;8.43;2.85;;;;;;;16.57;71.89;98254.91;5025649;28;20025;-64
2021/08/17 07:22:11;;;;;;;6.22;3.30;;;;;;;16.45;71.35;98245.97;5027913;28;20034;-63
2021/08/17 07:24:36;;;;;;;7.88;3.10;;;;;;;16.93;71.75;98243.06;5027736;28;20087;-64
2021/08/17 07:27:02;;;;;;;10.85;3.63;;;;;;;17.57;67.67;98250.38;5023171;28;20037;-64
2021/08/17 07:29:27;;;;;;;8.48;3.50;;;;;;;17.98;68.77;98258.22;5026836;28;20278;-65
2021/08/17 07:31:53;;;;;;;6.28;2.72;;;;;;;17.56;68.88;98253.97;5022898;28;20773;-63
2021/08/17 07:34:18;;;;;;;6.47;3.50;;;;;;;17.88;67.21;98252.72;5024002;28;20026;-65
2021/08/17 07:36:44;;;;;;;7.00;3.00;;;;;;;18.47;64.97;98254.03;5030543;28;20069;-65
2021/08/17 07:39:12;;;;;;;8.38;3.25;;;;;;;18.09;64.07;98255.72;5031293;28;20474;-65
2021/08/17 07:41:38;;;;;;;9.85;3.90;;;;;;;18.67;64.07;98255.28;5030029;28;20808;-64
2021/08/17 07:44:04;;;;;;;6.40;3.05;;;;;;;19.12;62.59;98254.81;5046776;28;20033;-65
2021/08/17 07:46:31;;;;;;;6.88;2.90;;;;;;;20.46;59.76;98256.31;5030443;28;20045;-64
2021/08/17 07:48:56;;;;;;;9.10;3.28;;;;;;;19.61;60.16;98256.50;5030452;28;20025;-64
2021/08/17 07:51:22;;;;;;;6.20;3.45;;;;;;;18.96;62.15;98261.19;5029002;28;20041;-63
2021/08/17 07:53:48;;;;;;;7.82;3.20;;;;;;;18.16;63.94;98255.28;5031893;28;20118;-64
2021/08/17 07:56:13;;;;;;;9.95;3.47;;;;;;;18.21;62.00;98263.75;5029727;28;20156;-65
2021/08/17 07:58:39;;;;;;;8.75;3.40;;;;;;;17.92;65.75;98271.84;5029353;28;20431;-64
2021/08/17 08:01:04;;;;;;;7.45;3.22;;;;;;;17.91;64.47;98272.78;5029533;28;20074;-66
2021/08/17 08:03:30;;;;;;;5.05;2.67;;;;;;;17.76;65.26;98269.34;5028484;28;20268;-66
2021/08/17 08:05:55;;;;;;;8.65;3.40;;;;;;;17.50;64.94;98274.53;5029219;28;20037;-66
2021/08/17 08:08:21;;;;;;;8.15;3.58;;;;;;;16.76;68.49;98279.16;5028915;28;20403;-65
2021/08/17 08:10:46;;;;;;;8.60;3.35;;;;;;;17.07;67.86;98277.25;5030685;28;20622;-65
2021/08/17 08:13:12;;;;;;;9.50;3.50;;;;;;;16.95;67.89;98278.06;5028758;28;20029;-64
2021/08/17 08:15:37;;;;;;;7.70;3.60;;;;;;;17.08;67.21;98286.88;5029533;28;20399;-64
2021/08/17 08:18:03;;;;;;;5.03;3.08;;;;;;;17.39;66.52;98287.56;5029535;28;20052;-64
2021/08/17 08:20:29;;;;;;;7.28;3.28;;;;;;;17.14;67.30;98281.22;5030046;28;20044;-64
2021/08/17 08:22:54;;;;;;;6.65;3.50;;;;;;;17.07;65.54;98277.25;5027902;28;20088;-64
2021/08/17 08:25:20;;;;;;;9.45;3.80;;;;;;;17.01;68.31;98282.94;5030154;28;20032;-64
2021/08/17 08:27:45;;;;;;;10.00;3.70;;;;;;;17.34;66.89;98289.66;5027346;28;20036;-66
2021/08/17 08:30:12;;;;;;;7.47;3.45;;;;;;;17.81;65.29;98282.22;5028420;28;20518;-64
2021/08/17 08:32:37;;;;;;;6.70;3.40;;;;;;;17.89;64.36;98299.28;5029591;28;20092;-64
2021/08/17 08:35:05;;;;;;;10.27;3.47;;;;;;;18.50;62.35;98294.28;5030381;28;20029;-64
2021/08/17 08:37:33;;;;;;;8.07;3.60;;;;;;;18.76;62.72;98293.44;5029664;28;20569;-64
2021/08/17 08:39:58;;;;;;;7.70;2.85;;;;;;;19.51;62.17;98297.84;5032876;28;20028;-64
2021/08/17 08:42:25;;;;;;;8.55;3.65;;;;;;;18.78;61.83;98292.34;5030987;28;20045;-65
2021/08/17 08:44:52;;;;;;;9.90;3.70;;;;;;;19.71;59.17;98294.56;5030531;28;20033;-66
2021/08/17 08:47:18;;;;;;;6.88;3.60;;;;;;;18.91;60.60;98292.38;5028841;28;20412;-64
2021/08/17 08:49:47;;;;;;;6.90;3.22;;;;;;;18.86;60.76;98297.16;5033359;28;20024;-66
2021/08/17 08:52:12;;;;;;;5.75;3.35;;;;;;;19.42;58.79;98294.88;5028827;28;20087;-66
2021/08/17 08:54:37;;;;;;;6.93;3.50;;;;;;;19.62;58.44;98296.09;5029573;28;20029;-68
2021/08/17 08:57:04;;;;;;;8.27;3.90;;;;;;;18.98;59.20;98298.91;5028586;28;20052;-65
2021/08/17 08:59:29;;;;;;;7.88;3.75;;;;;;;19.30;58.54;98301.09;5029022;28;20032;-66
2021/08/17 09:02:09;;;;;;;7.57;3.15;;;;;;;19.84;58.09;98295.38;5029408;28;20041;-65
2021/08/17 09:04:35;;;;;;;8.82;3.35;;;;;;;20.02;57.22;98297.63;5027188;28;20116;-66
2021/08/17 09:07:01;;;;;;;8.77;3.60;;;;;;;19.18;59.42;98294.03;5027241;28;20033;-65
2021/08/17 09:09:27;;;;;;;7.43;3.53;;;;;;;18.53;60.08;98280.03;5029282;28;20025;-66
2021/08/17 09:11:54;;;;;;;8.85;3.70;;;;;;;17.84;61.99;98297.84;5028714;28;20056;-64
2021/08/17 09:14:30;;;;;;;7.43;3.95;;;;;;;17.87;61.88;98295.06;5029150;28;20123;-64
2021/08/17 09:17:01;;;;;;;7.15;3.60;;;;;;;17.84;60.94;98288.13;5028065;28;20722;-64
2021/08/17 09:19:31;;;;;;;8.45;4.00;;;;;;;17.41;62.94;98288.31;5025906;28;20055;-65
2021/08/17 09:22:13;;;;;;;6.30;3.50;;;;;;;18.10;61.36;98278.53;5027026;28;20043;-66
2021/08/17 09:24:39;;;;;;;7.93;3.58;;;;;;;18.13;60.25;98274.81;5028481;28;20109;-63
2021/08/17 09:27:16;;;;;;;8.98;3.80;;;;;;;17.64;61.20;98262.22;5026805;28;20144;-66
2021/08/17 09:29:44;;;;;;;8.15;3.58;;;;;;;17.81;61.39;98272.53;5029474;28;20096;-64
2021/08/17 09:32:21;;;;;;;9.55;3.70;;;;;;;17.80;62.08;98260.25;5028321;28;20057;-66
2021/08/17 09:34:49;;;;;;;5.78;3.40;;;;;;;18.29;60.95;98266.72;5029640;28;20025;-65
2021/08/17 09:37:15;;;;;;;7.07;3.42;;;;;;;18.61;60.77;98280.34;5029015;28;20034;-65
2021/08/17 09:39:45;;;;;;;8.48;3.80;;;;;;;17.24;62.53;98272.72;5027527;28;20021;-66
2021/08/17 09:42:15;;;;;;;9.15;3.42;;;;;;;16.88;63.63;98288.13;5027554;28;20095;-64
2021/08/17 09:44:42;;;;;;;6.20;3.30;;;;;;;17.57;62.16;98289.94;5028271;28;20032;-64
2021/08/17 09:47:07;;;;;;;9.20;3.58;;;;;;;17.43;62.47;98286.41;5028896;28;20071;-65
2021/08/17 09:49:33;;;;;;;8.55;3.38;;;;;;;18.31;60.83;98288.59;5028739;28;20121;-67
2021/08/17 09:52:10;;;;;;;8.45;3.45;;;;;;;19.01;59.27;98280.22;5027197;28;20041;-64
2021/08/17 09:54:38;;;;;;;7.97;3.50;;;;;;;20.37;55.33;98272.91;5028147;28;20025;-64
2021/08/17 09:57:05;;;;;;;6.78;3.60;;;;;;;21.87;50.88;98256.56;5027857;28;20036;-64
2021/08/17 09:59:33;;;;;;;7.72;3.63;;;;;;;21.69;51.89;98257.16;5027058;28;20043;-66
2021/08/17 10:02:00;;;;;;;6.38;3.25;;;;;;;21.25;53.83;98264.25;5027013;28;20037;-66
2021/08/17 10:04:27;;;;;;;7.30;3.70;;;;;;;21.08;52.63;98248.81;5026851;28;20040;-66
2021/08/17 10:06:55;;;;;;;7.00;3.90;;;;;;;21.22;52.38;98253.88;5026065;28;20033;-64
2021/08/17 10:09:22;;;;;;;5.88;3.80;;;;;;;22.20;51.27;98239.59;5027961;28;20034;-66
2021/08/17 10:11:47;;;;;;;6.65;3.60;;;;;;;22.28;50.50;98244.31;5026514;28;20045;-64
2021/08/17 10:14:14;;;;;;;9.95;3.72;;;;;;;23.23;47.63;98238.72;5029232;28;20060;-66
2021/08/17 10:16:46;;;;;;;7.45;3.47;;;;;;;23.73;47.37;98242.22;5024693;28;20037;-65
2021/08/17 10:19:21;;;;;;;7.85;3.70;;;;;;;23.25;46.91;98228.75;5027249;28;20032;-65
2021/08/17 10:21:50;;;;;;;8.52;3.20;;;;;;;22.80;47.67;98229.16;5031399;28;20219;-66
2021/08/17 10:24:42;;;;;;;5.13;3.20;;;;;;;23.91;44.27;98219.25;5026506;28;20065;-66
2021/08/17 10:27:16;;;;;;;8.48;3.88;;;;;;;23.14;45.26;98226.22;5030103;28;20034;-64
2021/08/17 10:29:58;;;;;;;5.93;3.63;;;;;;;22.75;45.42;98220.75;5027764;28;20029;-65
2021/08/17 10:32:42;;;;;;;9.10;3.75;;;;;;;22.96;46.71;98219.84;5026818;28;20064;-64
2021/08/17 10:35:30;;;;;;;7.55;3.25;;;;;;;23.43;46.35;98214.75;5023894;28;20037;-65
2021/08/17 10:38:10;;;;;;;7.05;4.07;;;;;;;23.46;45.10;98211.84;5027640;28;20037;-66
2021/08/17 10:40:51;;;;;;;6.28;3.35;;;;;;;25.78;40.83;98204.91;5026407;28;20041;-65
2021/08/17 10:43:24;;;;;;;8.73;3.83;;;;;;;25.67;40.85;98207.81;5028962;28;20027;-65
2021/08/17 10:46:00;;;;;;;7.78;4.07;;;;;;;24.24;43.40;98207.31;5027526;28;20033;-65
2021/08/17 10:48:50;;;;;;;6.93;3.90;;;;;;;23.78;43.34;98200.88;5028272;28;20346;-65
2021/08/17 10:51:18;;;;;;;6.32;3.90;;;;;;;24.61;42.94;98192.31;5026969;28;20510;-66
2021/08/17 10:53:48;;;;;;;6.47;3.70;;;;;;;25.43;42.22;98182.56;5028992;28;20037;-66
2021/08/17 10:56:19;;;;;;;6.30;3.55;;;;;;;25.09;41.04;98182.34;5027578;28;20037;-65
2021/08/17 10:58:47;;;;;;;6.47;3.72;;;;;;;24.78;40.50;98175.53;5028870;28;20039;-66
2021/08/17 11:01:12;;;;;;;8.73;3.70;;;;;;;24.39;41.73;98170.34;5026603;28;20033;-64
2021/08/17 11:03:39;;;;;;;7.70;3.92;;;;;;;24.11;41.56;98176.59;5027258;28;20025;-66
2021/08/17 11:06:05;;;;;;;5.63;3.55;;;;;;;22.79;45.07;98176.97;5027768;28;20222;-66
2021/08/17 11:08:30;;;;;;;5.45;3.35;;;;;;;22.76;44.95;98182.56;5027347;28;20402;-65
2021/08/17 11:10:56;;;;;;;5.33;3.37;;;;;;;22.10;45.68;98189.09;5031628;28;20045;-64
2021/08/17 11:13:25;;;;;;;6.63;3.75;;;;;;;21.86;47.93;98185.88;5031623;28;20802;-66
2021/08/17 11:16:10;;;;;;;6.97;3.70;;;;;;;22.65;46.93;98190.63;5030441;28;20049;-66
2021/08/17 11:19:08;;;;;;;8.82;3.90;;;;;;;22.70;44.99;98191.91;5031353;28;20225;-65
2021/08/17 11:21:40;;;;;;;5.80;3.30;;;;;;;22.45;44.75;98187.91;4992756;28;20045;-64
2021/08/17 11:24:22;;;;;;;6.50;3.28;;;;;;;22.26;45.13;98190.47;5033443;28;20514;-67
2021/08/17 11:26:57;;;;;;;6.45;3.80;;;;;;;21.98;43.67;98187.47;5030490;28;20072;-64
2021/08/17 11:29:28;;;;;;;7.53;3.70;;;;;;;21.74;46.64;98191.25;5034940;28;20103;-67
2021/08/17 11:31:56;;;;;;;6.07;3.30;;;;;;;22.19;45.50;98189.28;5031735;28;20049;-65